Denton, NE (68339)

5:24 PM CDT on September 21, 2019 (GMT -0500)
Denton | | Change Station
Active Advisory: Severe Thunderstorm Watch

Elev 1240 ft 40.73 °N, 96.85 °W | Updated 20 seconds ago

Mostly Cloudy
Mostly Cloudy
86 °F
Feels Like 96 °F
N
3
Wind Variable Wind from West
Gusts 6.0 mph

Today
High -- | Low -- °F
--% Chance of Precip.
Yesterday
High -- | Low -- °F
Precip. -- in
Pressure 29.78 in
Visibility 10.0 miles
Clouds Mostly Cloudy 4200 ft
Heat Index 96 °F
Dew Point 76 °F
Humidity 71%
Rainfall 0.00 in
Snow Depth Not available.
7:13 AM 7:26 PM
Waning Gibbous, 52% visible
METAR KLNK 212154Z 20011KT 10SM BKN042 30/20 A2982 RMK AO2 SLP084 T03000200
Pressure 29.78 in
Visibility 10.0 miles
Clouds Mostly Cloudy 4200 ft
Heat Index 96 °F
Dew Point 76 °F
Humidity 71%
Rainfall 0.00 in
Snow Depth Not available.
7:13 AM 7:26 PM
Waning Gibbous, 52% visible
METAR KLNK 212154Z 20011KT 10SM BKN042 30/20 A2982 RMK AO2 SLP084 T03000200

Get Your Daily Forecast Email!

Thanks for signing up!

Be on the lookout for a verification email in your inbox.

You'll start receiving severe weather alerts in your inbox..

×

10-Day Weather Forecast

Almanac

Astronomy

Sep. 21, 2019 Rise Set
Actual Time
Civil Twilight
Nautical Twilight
Astronomical Twilight
Moon
Length of Visible Light
Length of Day
Tomorrow will be .
, % of the Moon is Illuminated

Today's Extremes

State Highs State Lows

Community

WunderPhotos

Category 6

Welcome to Category 6. This is the collective home for Weather Underground's featured writeups by Dr. Jeff Masters (right), Bob Henson (left), Chris Burt, and other regular contributors.

Nearby

Air Quality

  Air Quality AQ Index Pollutant
Not available.

Snow Depth

Station Depth Elevation

Earthquake Activity

City Distance Mag. Time & Date
Minimum magnitude displayed is 2.5.

Coastal Water Temperatures

Place Temperature

Stations

Nearby Weather Stations

Station Location Temp. Windchill Dew Point Humidity Wind Precip. Elev Updated Type
                   

Watches & Warnings

Severe Thunderstorm Watch
Issued: 5:14 PM CDT Sep. 21, 2019 – National Weather Service


The National Weather Service has issued Severe Thunderstorm Watch
657 in effect until midnight CDT tonight for the following areas

In Nebraska this watch includes 10 counties

In southeast Nebraska

Cass gage Jefferson
Johnson Lancaster Nemaha
Otoe Pawnee Richardson
Saline

This includes the cities of Auburn, Beatrice, Crete, Fairbury,
Falls City, Lincoln, Nebraska City, Pawnee City, Plattsmouth,
Sterling, Table Rock, Tecumseh, and Wilber.